McCloud, California
Current Conditions -  °F | °C
As of 2:56 PM on Saturday 25 Oct 2014 (Local Time) from KMHS Reporting Station
Overcast Overcast  
Wind Chill: 53°   Ceiling: 3700
Heat Index: 53°   Visibility: 10mi
Dew Point: 49°   Wind: 5mph
Humidity: 86%   Direction: NA
Pressure: 29.83"   Gusts: NA
Location:  41.26°N, 122.14°W
Report Text: KMHS 252156Z AUTO VRB04KT 10SM FEW030 BKN037 OVC045 12/09 A2983 RMK AO2 RAE52 SLP107 P0001 T01170094
Loading
Personal Weather Stations






























Interactive Weather Map
Tropical Storm Tracking
New forecast layout! Learn more

10-Day Weather Forecast

Advertisements
Track Severe Weather on mobile